Главная страница
METAR-TAF:

METAR-TAF

Аэропорты :

Любек, Германия

широта: 53-49N, долгота: 010-42E, высота над уровнем моря: 14 м

Текущие метеонаблюдения

Эта сводка был подготовлена 33 минут назад, в 11:20 UTC
Ветер 5 Узел переменных направлений
Температура 7°C
Влажность 81%
Давление 1032 hPa
Видимость 10 км и более
Отдельные облака на высоте 1600 фута

METAR: EDHL 221120Z VRB05KT 9999 SCT016 07/04 Q1032

Время: 12:53 (11:53 UTC)

Прогноз

Эта сводка был подготовлена 53 минут назад, в 11:00 UTC
Прогноз действительный с 22-го 12 UTC до 22-го 21 UTC
Ветер 8 Узел от западно-северо-западный
Видимость 10 км и более
Отдельные облака на высоте 1200 фута
изменения
С 22-го 18 UTC до 22-го 20 UTC
Ветер 3 Узел от западный
Вероятность 30% :
временами
С 22-го 20 UTC до 22-го 21 UTC
Видимость: 4000 м
Рассеянная облачность на высоте 1400 фута
дымка

TAF: EDHL 221100Z 2212/2221 30008KT 9999 SCT012 BECMG 2218/2220 27003KT PROB30 TEMPO 2220/2221 4000 BR BKN014

Метеонаблюдения и прогнозы для более 4000 аэропортов (сводки METAR и TAF).

Имеющиеся станции представлены на карте желтыми и красными точками.

Чтобы увидеть название станции, наведите на нее мышь.

Затем щелкните, чтобы увидеть метеонаблюдения и метеопрогнозы.

Управление картой: чтобы увеличить масштаб, щелкните зеленые кнопки с черным крестиком; чтобы уменьшить масштаб, щелкните зеленую кнопку с тире; для просмотра соседних карт щелкайте зеленые стрелки.


METAR-TAF: